createdAt,value
2023-01-02T00:01:06.063Z,18.87
2023-01-02T00:03:33.010Z,18.74
2023-01-02T00:06:03.659Z,18.85
2023-01-02T00:08:30.443Z,18.90
2023-01-02T00:10:57.214Z,18.71
2023-01-02T00:13:24.046Z,18.95
2023-01-02T00:15:50.800Z,18.84
2023-01-02T00:18:18.098Z,18.85
2023-01-02T00:20:44.831Z,19.01
2023-01-02T00:23:11.541Z,18.94
2023-01-02T00:25:38.348Z,18.66
2023-01-02T00:28:05.032Z,18.82
2023-01-02T00:30:37.895Z,18.92
2023-01-02T00:33:06.262Z,18.48
2023-01-02T00:35:33.405Z,18.99
2023-01-02T00:38:00.109Z,18.86
2023-01-02T00:40:27.052Z,19.02
2023-01-02T00:42:53.763Z,18.80
2023-01-02T00:45:20.694Z,18.84
2023-01-02T00:47:47.345Z,18.64
2023-01-02T00:50:14.027Z,18.86
2023-01-02T00:52:40.694Z,18.58
2023-01-02T00:55:07.715Z,18.73
2023-01-02T00:57:34.600Z,18.61
2023-01-02T01:00:01.239Z,18.80
2023-01-02T01:02:28.025Z,18.48
2023-01-02T01:04:54.818Z,18.74
2023-01-02T01:07:21.399Z,18.79
2023-01-02T01:09:48.069Z,18.74
2023-01-02T01:12:14.717Z,18.72
2023-01-02T01:14:41.360Z,18.69
2023-01-02T01:17:07.990Z,18.81
2023-01-02T01:19:35.834Z,18.75
2023-01-02T01:22:02.566Z,18.78
2023-01-02T01:24:29.423Z,18.90
2023-01-02T01:26:56.148Z,18.86
2023-01-02T01:29:22.862Z,18.88
2023-01-02T01:31:49.579Z,19.03
2023-01-02T01:34:17.519Z,18.78
2023-01-02T01:36:44.207Z,19.03
2023-01-02T01:39:11.806Z,19.04
2023-01-02T01:41:38.516Z,18.81
2023-01-02T01:44:39.464Z,18.97
2023-01-02T01:47:32.494Z,19.07
2023-01-02T01:50:14.413Z,19.05
2023-01-02T01:53:07.678Z,19.06
2023-01-02T01:55:43.280Z,19.12
2023-01-02T01:58:21.598Z,18.93
2023-01-02T02:00:49.535Z,19.04
2023-01-02T02:03:20.080Z,19.12
2023-01-02T02:05:48.100Z,18.81
2023-01-02T02:08:42.016Z,18.81
2023-01-02T02:11:10.086Z,18.87
2023-01-02T02:13:36.797Z,18.90
2023-01-02T02:16:06.574Z,18.78
2023-01-02T02:19:07.493Z,18.88
2023-01-02T02:22:09.779Z,18.63
2023-01-02T02:24:59.249Z,18.88
2023-01-02T02:27:46.196Z,18.74
2023-01-02T02:30:22.679Z,18.73
2023-01-02T02:33:31.183Z,18.68
2023-01-02T02:36:09.403Z,18.82
2023-01-02T02:38:45.175Z,18.65
2023-01-02T02:41:59.054Z,18.79
2023-01-02T02:44:43.598Z,18.77
2023-01-02T02:47:21.342Z,18.61
2023-01-02T02:50:14.347Z,18.33
2023-01-02T02:52:51.462Z,18.71
2023-01-02T02:55:24.955Z,18.70
2023-01-02T02:57:53.043Z,18.51
2023-01-02T03:00:23.040Z,18.73
2023-01-02T03:02:50.090Z,18.63
2023-01-02T03:05:22.948Z,18.74
2023-01-02T03:08:05.254Z,18.75
2023-01-02T03:10:40.882Z,18.56
2023-01-02T03:13:18.287Z,18.68
2023-01-02T03:16:04.847Z,18.64
2023-01-02T03:18:46.732Z,18.52
2023-01-02T03:21:30.901Z,18.69
2023-01-02T03:24:04.338Z,18.62
2023-01-02T03:26:33.754Z,18.67
2023-01-02T03:29:18.419Z,18.67
2023-01-02T03:31:49.583Z,18.68
2023-01-02T03:34:28.956Z,18.70
2023-01-02T03:37:01.903Z,18.86
2023-01-02T03:39:31.173Z,18.55
2023-01-02T03:42:06.881Z,18.46
2023-01-02T03:45:06.460Z,18.67
2023-01-02T03:47:54.878Z,18.73
2023-01-02T03:50:33.256Z,18.61
2023-01-02T03:53:00.987Z,18.69
2023-01-02T03:55:32.411Z,18.59
2023-01-02T03:58:18.327Z,18.65
2023-01-02T04:01:04.673Z,18.64
2023-01-02T04:03:45.341Z,18.73
2023-01-02T04:06:18.540Z,18.87
2023-01-02T04:08:51.841Z,18.92
2023-01-02T04:11:21.485Z,18.70
2023-01-02T04:13:58.202Z,18.84
2023-01-02T04:16:29.546Z,18.80
2023-01-02T04:19:02.927Z,19.01
2023-01-02T04:21:33.095Z,18.97
2023-01-02T04:24:06.997Z,19.16
2023-01-02T04:26:43.878Z,18.87
2023-01-02T04:29:11.134Z,19.02
2023-01-02T04:31:51.316Z,19.23
2023-01-02T04:34:20.514Z,19.07
2023-01-02T04:36:47.427Z,19.04
2023-01-02T04:39:14.140Z,19.14
2023-01-02T04:41:41.316Z,19.10
2023-01-02T04:44:07.971Z,18.80
2023-01-02T04:46:34.702Z,18.93
2023-01-02T04:49:01.352Z,18.67
2023-01-02T04:51:27.940Z,18.59
2023-01-02T04:53:54.829Z,18.80
2023-01-02T04:56:22.200Z,18.97
2023-01-02T04:58:49.734Z,18.74
2023-01-02T05:01:18.891Z,18.91
2023-01-02T05:03:48.609Z,18.74
2023-01-02T05:06:15.583Z,18.87
2023-01-02T05:08:43.610Z,18.96
2023-01-02T05:11:18.424Z,18.84
2023-01-02T05:13:45.317Z,18.99
2023-01-02T05:16:12.245Z,18.67
2023-01-02T05:18:39.176Z,18.99
2023-01-02T05:21:29.855Z,19.24
2023-01-02T05:23:57.907Z,19.01
2023-01-02T05:26:24.909Z,18.75
2023-01-02T05:28:54.827Z,18.86
2023-01-02T05:31:21.703Z,19.13
2023-01-02T05:33:56.261Z,19.27
2023-01-02T05:36:24.408Z,19.16
2023-01-02T05:38:52.620Z,18.84
2023-01-02T05:41:20.773Z,19.17
2023-01-02T05:43:47.589Z,18.89
2023-01-02T05:46:16.856Z,18.87
2023-01-02T05:48:44.851Z,19.19
2023-01-02T05:51:13.523Z,18.83
2023-01-02T05:53:40.718Z,18.91
2023-01-02T05:56:08.711Z,19.15
2023-01-02T05:58:37.438Z,18.77
2023-01-02T06:01:08.245Z,18.86
2023-01-02T06:03:34.992Z,18.62
2023-01-02T06:06:10.110Z,18.79
2023-01-02T06:08:38.261Z,18.90
2023-01-02T06:11:06.223Z,18.83
2023-01-02T06:13:34.629Z,18.85
2023-01-02T06:16:02.409Z,18.61
2023-01-02T06:18:31.908Z,18.73
2023-01-02T06:20:59.851Z,18.67
2023-01-02T06:23:27.028Z,18.74
2023-01-02T06:25:54.343Z,18.66
2023-01-02T06:28:21.764Z,18.67
2023-01-02T06:30:48.438Z,18.66
2023-01-02T06:33:16.162Z,18.76
2023-01-02T06:35:43.691Z,18.69
2023-01-02T06:38:10.372Z,18.47
2023-01-02T06:40:37.046Z,18.60
2023-01-02T06:43:03.650Z,18.78
2023-01-02T06:45:30.348Z,18.82
2023-01-02T06:47:58.121Z,18.73
2023-01-02T06:50:31.318Z,18.58
2023-01-02T06:53:01.215Z,18.45
2023-01-02T06:55:27.938Z,18.67
2023-01-02T06:57:54.652Z,18.50
2023-01-02T07:00:21.425Z,18.53
2023-01-02T07:02:48.278Z,18.66
2023-01-02T07:05:19.755Z,18.66
2023-01-02T07:07:49.619Z,18.55
2023-01-02T07:10:19.349Z,18.51
2023-01-02T07:12:46.079Z,18.45
2023-01-02T07:15:12.740Z,18.44
2023-01-02T07:17:39.424Z,18.54
2023-01-02T07:20:06.650Z,18.47
2023-01-02T07:22:33.322Z,18.68
2023-01-02T07:25:01.671Z,18.51
2023-01-02T07:27:32.188Z,18.29
2023-01-02T07:29:59.501Z,18.53
2023-01-02T07:32:27.776Z,18.51
2023-01-02T07:34:54.707Z,18.38
2023-01-02T07:37:21.348Z,18.20
2023-01-02T07:39:48.021Z,18.27
2023-01-02T07:42:14.652Z,18.20
2023-01-02T07:44:41.781Z,18.07
2023-01-02T07:47:08.450Z,17.95
2023-01-02T07:49:35.147Z,18.14
2023-01-02T07:52:01.908Z,18.00
2023-01-02T07:54:28.548Z,18.23
2023-01-02T07:56:55.283Z,18.18
2023-01-02T07:59:22.011Z,18.26
2023-01-02T08:01:48.797Z,18.30
2023-01-02T08:04:15.669Z,18.49
2023-01-02T08:06:42.567Z,18.31
2023-01-02T08:09:09.280Z,18.09
2023-01-02T08:11:36.011Z,18.33
2023-01-02T08:14:02.925Z,18.45
2023-01-02T08:16:31.121Z,18.44
2023-01-02T08:18:57.846Z,18.33
2023-01-02T08:21:30.349Z,18.21
2023-01-02T08:23:57.023Z,18.24
2023-01-02T08:26:24.038Z,18.42
2023-01-02T08:28:50.724Z,18.31
2023-01-02T08:31:21.197Z,18.50
2023-01-02T08:33:48.635Z,18.04
2023-01-02T08:36:15.660Z,18.31
2023-01-02T08:38:42.707Z,18.02
2023-01-02T08:41:09.834Z,17.85
2023-01-02T08:43:36.962Z,17.87
2023-01-02T08:46:05.691Z,17.65
2023-01-02T08:48:32.885Z,17.98
2023-01-02T08:50:59.585Z,17.71
2023-01-02T08:53:28.969Z,17.59
2023-01-02T08:55:55.622Z,17.52
2023-01-02T08:58:22.355Z,17.41
2023-01-02T09:00:52.118Z,17.15
2023-01-02T09:03:18.874Z,17.34
2023-01-02T09:05:45.492Z,17.05
2023-01-02T09:08:12.315Z,17.14
2023-01-02T09:10:40.178Z,17.26
2023-01-02T09:13:06.853Z,17.13
2023-01-02T09:15:33.633Z,17.24
2023-01-02T09:18:01.414Z,17.28
2023-01-02T09:20:28.073Z,17.33
2023-01-02T09:22:54.748Z,16.99
2023-01-02T09:25:24.391Z,17.14
2023-01-02T09:27:52.305Z,17.13
2023-01-02T09:30:19.385Z,17.05
2023-01-02T09:32:48.965Z,16.82
2023-01-02T09:35:15.865Z,16.99
2023-01-02T09:37:42.470Z,17.05
2023-01-02T09:40:11.693Z,16.89
2023-01-02T09:42:38.441Z,17.05
2023-01-02T09:45:09.125Z,17.17
2023-01-02T09:47:39.908Z,17.12
2023-01-02T09:50:13.729Z,16.92
2023-01-02T09:52:43.081Z,17.12
2023-01-02T09:55:38.193Z,17.35
2023-01-02T09:58:26.968Z,17.07
2023-01-02T10:00:54.036Z,17.15
2023-01-02T10:03:37.101Z,17.10
2023-01-02T10:06:09.897Z,16.41
2023-01-02T10:08:59.991Z,16.69
2023-01-02T10:11:35.807Z,16.94
2023-01-02T10:14:21.132Z,16.96
2023-01-02T10:16:56.258Z,17.25
2023-01-02T10:19:52.013Z,17.05
2023-01-02T10:22:31.123Z,17.08
2023-01-02T10:25:11.658Z,16.95
2023-01-02T10:27:46.621Z,16.88
2023-01-02T10:30:25.241Z,16.98
2023-01-02T10:33:19.408Z,16.96
2023-01-02T10:35:53.623Z,17.25
2023-01-02T10:38:20.802Z,17.05
2023-01-02T10:40:50.043Z,16.88
2023-01-02T10:43:18.006Z,17.04
2023-01-02T10:45:44.891Z,17.21
2023-01-02T10:48:12.142Z,17.33
2023-01-02T10:50:47.828Z,16.96
2023-01-02T10:53:28.419Z,16.99
2023-01-02T10:55:55.283Z,17.11
2023-01-02T10:58:23.532Z,16.97
2023-01-02T11:00:52.719Z,16.81
2023-01-02T11:03:27.587Z,16.88
2023-01-02T11:06:02.091Z,16.83
2023-01-02T11:08:39.271Z,16.71
2023-01-02T11:11:17.335Z,16.82
2023-01-02T11:13:54.324Z,16.93
2023-01-02T11:16:23.790Z,16.82
2023-01-02T11:19:02.060Z,16.98
2023-01-02T11:21:33.022Z,16.82
2023-01-02T11:24:01.358Z,16.70
2023-01-02T11:26:30.285Z,16.49
2023-01-02T11:29:05.895Z,16.44
2023-01-02T11:31:33.054Z,16.71
2023-01-02T11:34:21.009Z,16.71
2023-01-02T11:37:21.435Z,16.81
2023-01-02T11:40:06.489Z,16.93
2023-01-02T11:43:00.988Z,16.83
2023-01-02T11:45:28.906Z,16.71
2023-01-02T11:48:01.753Z,16.92
2023-01-02T11:50:31.156Z,16.50
2023-01-02T11:53:15.183Z,16.90
2023-01-02T11:55:49.177Z,16.86
2023-01-02T11:58:30.702Z,16.85
2023-01-02T12:01:06.179Z,16.74
2023-01-02T12:03:34.665Z,16.77
2023-01-02T12:06:20.037Z,17.04
2023-01-02T12:09:28.685Z,16.83
2023-01-02T12:11:58.151Z,16.40
2023-01-02T12:14:45.915Z,16.90
2023-01-02T12:17:58.091Z,16.74
2023-01-02T12:20:24.669Z,16.98
2023-01-02T12:23:18.137Z,16.88
2023-01-02T12:25:52.583Z,16.96
2023-01-02T12:28:37.674Z,17.17
2023-01-02T12:31:27.123Z,17.13
2023-01-02T12:34:07.522Z,17.06
2023-01-02T12:37:18.584Z,17.15
2023-01-02T12:40:03.199Z,17.30
2023-01-02T12:42:51.441Z,17.43
2023-01-02T12:45:36.744Z,17.50
2023-01-02T12:48:20.604Z,17.37
2023-01-02T12:51:12.870Z,17.13
2023-01-02T12:53:48.628Z,16.95
2023-01-02T12:57:02.800Z,17.06
2023-01-02T12:59:47.315Z,17.18
2023-01-02T13:02:42.078Z,16.87
2023-01-02T13:05:18.504Z,16.92
2023-01-02T13:07:51.051Z,17.21
2023-01-02T13:10:21.982Z,16.80
2023-01-02T13:12:48.831Z,17.03
2023-01-02T13:15:19.094Z,16.86
2023-01-02T13:18:01.052Z,16.72
2023-01-02T13:20:41.459Z,16.34
2023-01-02T13:23:32.495Z,16.56
2023-01-02T13:26:06.196Z,16.51
2023-01-02T13:28:33.965Z,16.21
2023-01-02T13:31:44.327Z,16.44
2023-01-02T13:33:54.167Z,16.64
2023-01-02T13:36:36.444Z,16.29
2023-01-02T13:39:14.573Z,16.60
2023-01-02T13:42:09.909Z,16.72
2023-01-02T13:44:40.305Z,16.35
2023-01-02T13:47:34.425Z,16.07
2023-01-02T13:50:13.762Z,16.00
2023-01-02T13:52:41.260Z,16.00
2023-01-02T13:55:30.945Z,16.05
2023-01-02T13:58:24.532Z,15.92
2023-01-02T14:00:56.668Z,15.71
2023-01-02T14:03:23.798Z,15.69
2023-01-02T14:05:56.938Z,15.57
2023-01-02T14:08:28.221Z,15.49
2023-01-02T14:11:04.248Z,15.55
2023-01-02T14:13:53.114Z,15.42
2023-01-02T14:16:22.771Z,15.33
2023-01-02T14:19:16.999Z,15.29
2023-01-02T14:21:51.569Z,15.55
2023-01-02T14:24:32.121Z,15.31
2023-01-02T14:27:03.993Z,15.59
2023-01-02T14:29:32.934Z,15.54
2023-01-02T14:32:05.807Z,15.36
2023-01-02T14:34:34.835Z,15.41
2023-01-02T14:37:03.069Z,15.33
2023-01-02T14:39:33.827Z,15.40
2023-01-02T14:42:43.618Z,15.28
2023-01-02T14:45:19.331Z,15.23
2023-01-02T14:47:54.426Z,15.10
2023-01-02T14:50:25.946Z,15.32
2023-01-02T14:53:14.112Z,15.44
2023-01-02T14:55:42.624Z,15.25
2023-01-02T14:58:40.789Z,15.37
2023-01-02T15:01:10.818Z,15.48
2023-01-02T15:03:46.293Z,15.40
2023-01-02T15:06:39.199Z,15.61
2023-01-02T15:09:19.976Z,15.70
2023-01-02T15:12:13.433Z,15.65
2023-01-02T15:14:42.447Z,15.63
2023-01-02T15:17:14.734Z,15.67
2023-01-02T15:19:42.757Z,15.52
2023-01-02T15:22:17.673Z,15.55
2023-01-02T15:24:50.403Z,15.69
2023-01-02T15:27:26.746Z,15.53
2023-01-02T15:29:57.115Z,15.38
2023-01-02T15:32:32.459Z,15.13
2023-01-02T15:35:13.086Z,15.33
2023-01-02T15:37:44.996Z,15.23
2023-01-02T15:40:33.247Z,15.34
2023-01-02T15:43:24.994Z,15.41
2023-01-02T15:45:52.816Z,15.06
2023-01-02T15:48:22.009Z,15.43
2023-01-02T15:50:51.527Z,15.20
2023-01-02T15:53:34.470Z,15.36
2023-01-02T15:56:01.183Z,15.39
2023-01-02T15:58:34.675Z,15.41
2023-01-02T16:01:19.453Z,15.32
2023-01-02T16:04:03.014Z,15.03
2023-01-02T16:06:35.085Z,15.04
2023-01-02T16:09:05.315Z,14.86
2023-01-02T16:11:36.313Z,14.58
2023-01-02T16:14:22.305Z,14.86
2023-01-02T16:17:03.058Z,14.93
2023-01-02T16:20:00.788Z,14.70
2023-01-02T16:22:47.255Z,14.50
2023-01-02T16:25:19.976Z,14.63
2023-01-02T16:27:55.729Z,14.75
2023-01-02T16:30:25.368Z,14.78
2023-01-02T16:32:52.970Z,14.89
2023-01-02T16:35:31.262Z,14.86
2023-01-02T16:38:04.351Z,14.90
2023-01-02T16:41:00.298Z,14.52
2023-01-02T16:43:18.477Z,14.92
2023-01-02T16:45:48.247Z,14.91
2023-01-02T16:48:20.268Z,14.75
2023-01-02T16:50:49.922Z,14.83
2023-01-02T16:53:20.266Z,14.88
2023-01-02T16:55:47.130Z,14.75
2023-01-02T16:58:13.840Z,14.94
2023-01-02T17:00:43.654Z,14.74
2023-01-02T17:03:26.708Z,14.95
2023-01-02T17:06:01.709Z,15.05
2023-01-02T17:08:31.672Z,15.02
2023-01-02T17:10:59.262Z,15.22
2023-01-02T17:13:26.721Z,15.18
2023-01-02T17:15:53.845Z,14.81
2023-01-02T17:18:20.607Z,14.91
2023-01-02T17:20:48.358Z,14.69
2023-01-02T17:23:18.907Z,14.82
2023-01-02T17:25:46.663Z,14.66
2023-01-02T17:28:13.702Z,14.71
2023-01-02T17:30:45.421Z,14.86
2023-01-02T17:33:12.803Z,14.68
2023-01-02T17:35:39.457Z,14.81
2023-01-02T17:38:06.281Z,14.53
2023-01-02T17:40:33.244Z,14.60
2023-01-02T17:42:59.954Z,14.54
2023-01-02T17:45:26.803Z,14.29
2023-01-02T17:48:12.199Z,14.34
2023-01-02T17:50:40.507Z,14.36
2023-01-02T17:53:07.711Z,14.39
2023-01-02T17:55:34.498Z,14.47
2023-01-02T17:58:01.377Z,14.26
2023-01-02T18:00:28.623Z,14.59
2023-01-02T18:02:55.457Z,14.53
2023-01-02T18:05:22.876Z,14.42
2023-01-02T18:07:49.923Z,14.26
2023-01-02T18:10:20.396Z,14.39
2023-01-02T18:12:49.459Z,14.19
2023-01-02T18:15:19.096Z,14.22
2023-01-02T18:17:46.731Z,14.21
2023-01-02T18:20:18.523Z,14.54
2023-01-02T18:22:49.478Z,14.34
2023-01-02T18:25:27.228Z,14.48
2023-01-02T18:28:01.275Z,14.54
2023-01-02T18:30:28.676Z,14.58
2023-01-02T18:33:11.109Z,14.56
2023-01-02T18:38:35.805Z,14.69
2023-01-02T18:41:17.902Z,14.63
2023-01-02T18:43:45.804Z,14.66
2023-01-02T18:46:16.620Z,14.44
2023-01-02T18:48:43.520Z,14.63
2023-01-02T18:51:17.487Z,14.64
2023-01-02T18:53:49.608Z,14.71
2023-01-02T18:56:23.912Z,14.63
2023-01-02T18:58:55.124Z,14.50
2023-01-02T19:01:27.153Z,14.57
2023-01-02T19:04:00.790Z,14.60
2023-01-02T19:06:28.353Z,14.47
2023-01-02T19:09:01.742Z,14.37
2023-01-02T19:11:52.142Z,14.38
2023-01-02T19:14:24.096Z,14.20
2023-01-02T19:17:14.115Z,13.93
2023-01-02T19:19:41.186Z,14.07
2023-01-02T19:22:17.727Z,13.97
2023-01-02T19:24:44.897Z,14.15
2023-01-02T19:27:35.881Z,13.79
2023-01-02T19:30:08.108Z,14.10
2023-01-02T19:32:36.017Z,13.91
2023-01-02T19:35:31.659Z,13.93
2023-01-02T19:38:00.362Z,13.95
2023-01-02T19:40:27.114Z,13.97
2023-01-02T19:42:55.167Z,13.89
2023-01-02T19:45:26.049Z,13.93
2023-01-02T19:47:53.454Z,14.00
2023-01-02T19:50:25.900Z,13.77
2023-01-02T19:52:53.285Z,14.01
2023-01-02T19:55:20.297Z,13.73
2023-01-02T19:57:47.371Z,13.60
2023-01-02T20:00:16.470Z,13.80
2023-01-02T20:02:51.494Z,13.63
2023-01-02T20:05:21.937Z,13.82
2023-01-02T20:07:53.233Z,13.71
2023-01-02T20:10:20.892Z,13.67
2023-01-02T20:12:47.928Z,13.79
2023-01-02T20:15:18.637Z,13.83
2023-01-02T20:17:45.966Z,13.88
2023-01-02T20:20:16.205Z,13.54
2023-01-02T20:22:43.601Z,13.45
2023-01-02T20:25:13.259Z,13.34
2023-01-02T20:27:40.596Z,13.40
2023-01-02T20:30:08.717Z,13.32
2023-01-02T20:32:35.426Z,13.44
2023-01-02T20:35:02.477Z,13.49
2023-01-02T20:37:31.006Z,13.27
2023-01-02T20:39:57.697Z,13.50
2023-01-02T20:42:24.475Z,13.13
2023-01-02T20:44:51.218Z,13.19
2023-01-02T20:47:17.989Z,13.02
2023-01-02T20:49:44.752Z,13.07
2023-01-02T20:52:11.466Z,12.94
2023-01-02T20:54:38.214Z,12.87
2023-01-02T20:57:04.898Z,13.02
2023-01-02T20:59:31.657Z,12.88
2023-01-02T21:01:58.689Z,13.00
2023-01-02T21:04:32.590Z,12.93
2023-01-02T21:07:04.273Z,12.88
2023-01-02T21:09:31.205Z,12.78
2023-01-02T21:11:57.871Z,12.88
2023-01-02T21:14:24.539Z,13.13
2023-01-02T21:16:51.387Z,13.11
2023-01-02T21:19:18.059Z,13.23
2023-01-02T21:21:44.956Z,13.23
2023-01-02T21:24:11.710Z,13.16
2023-01-02T21:26:38.420Z,13.34
2023-01-02T21:29:05.479Z,13.45
2023-01-02T21:31:33.932Z,13.32
2023-01-02T21:34:00.851Z,13.14
2023-01-02T21:36:27.537Z,13.05
2023-01-02T21:38:54.223Z,13.27
2023-01-02T21:41:39.390Z,13.17
2023-01-02T21:44:06.072Z,13.19
2023-01-02T21:46:32.819Z,13.14
2023-01-02T21:48:59.684Z,13.43
2023-01-02T21:51:32.156Z,13.41
2023-01-02T21:53:59.506Z,13.52
2023-01-02T21:56:26.138Z,13.55
2023-01-02T21:58:52.888Z,13.33
2023-01-02T22:01:19.699Z,13.29
2023-01-02T22:03:46.657Z,13.39
2023-01-02T22:06:14.085Z,13.47
2023-01-02T22:08:40.891Z,13.16
2023-01-02T22:11:26.029Z,13.12
2023-01-02T22:13:52.743Z,12.85
2023-01-02T22:16:19.423Z,13.15
2023-01-02T22:18:46.197Z,13.04
2023-01-02T22:21:14.863Z,12.95
2023-01-02T22:23:41.977Z,13.06
2023-01-02T22:26:15.290Z,13.08
2023-01-02T22:28:43.315Z,13.07
2023-01-02T22:31:11.055Z,12.84
2023-01-02T22:33:38.045Z,12.98
2023-01-02T22:36:04.844Z,12.98
2023-01-02T22:38:31.510Z,13.11
2023-01-02T22:40:58.295Z,13.09
2023-01-02T22:43:25.212Z,13.18
2023-01-02T22:45:53.350Z,13.24
2023-01-02T22:48:20.030Z,13.23
2023-01-02T22:50:48.573Z,13.29
2023-01-02T22:53:29.446Z,13.33
2023-01-02T22:55:56.778Z,13.40
2023-01-02T22:58:24.788Z,13.42
2023-01-02T23:00:57.553Z,13.35
2023-01-02T23:03:24.260Z,13.50
2023-01-02T23:05:50.861Z,13.39
2023-01-02T23:08:17.641Z,13.34
2023-01-02T23:10:44.280Z,13.41
2023-01-02T23:13:10.990Z,13.10
2023-01-02T23:15:58.895Z,13.14
2023-01-02T23:18:44.865Z,13.08
2023-01-02T23:21:11.625Z,13.20
2023-01-02T23:23:38.413Z,13.24
2023-01-02T23:26:06.528Z,13.32
2023-01-02T23:29:05.360Z,13.34
2023-01-02T23:31:21.390Z,13.07
2023-01-02T23:33:48.066Z,13.20
2023-01-02T23:36:16.427Z,13.03
2023-01-02T23:38:43.887Z,12.81
2023-01-02T23:41:10.595Z,12.92
2023-01-02T23:43:37.231Z,13.04
2023-01-02T23:46:04.132Z,13.05
2023-01-02T23:48:30.873Z,13.00
2023-01-02T23:51:02.169Z,13.00
2023-01-02T23:53:29.040Z,12.68
2023-01-02T23:55:56.233Z,12.88
2023-01-02T23:58:23.575Z,12.88
